createdAt,value
2019-01-02T00:00:35.118Z,5.12
2019-01-02T00:03:04.547Z,5.19
2019-01-02T00:05:34.771Z,5.09
2019-01-02T00:08:04.321Z,5.13
2019-01-02T00:10:34.032Z,5.17
2019-01-02T00:13:03.604Z,5.27
2019-01-02T00:15:33.198Z,5.35
2019-01-02T00:18:02.772Z,5.31
2019-01-02T00:20:32.689Z,5.37
2019-01-02T00:23:02.253Z,5.30
2019-01-02T00:25:32.252Z,5.36
2019-01-02T00:28:02.295Z,5.40
2019-01-02T00:30:31.514Z,5.37
2019-01-02T00:33:01.880Z,5.42
2019-01-02T00:35:31.048Z,5.39
2019-01-02T00:38:00.841Z,5.44
2019-01-02T00:40:30.184Z,5.43
2019-01-02T00:42:59.307Z,5.45
2019-01-02T00:45:28.822Z,5.47
2019-01-02T00:47:58.740Z,5.33
2019-01-02T00:50:28.232Z,5.31
2019-01-02T00:52:58.048Z,5.32
2019-01-02T00:55:27.650Z,5.41
2019-01-02T00:57:56.814Z,5.47
2019-01-02T01:00:28.494Z,5.17
2019-01-02T01:02:58.021Z,4.96
2019-01-02T01:05:27.242Z,4.70
2019-01-02T01:07:56.535Z,4.51
2019-01-02T01:10:25.895Z,4.20
2019-01-02T01:12:56.034Z,4.08
2019-01-02T01:15:25.573Z,4.14
2019-01-02T01:17:54.771Z,4.16
2019-01-02T01:20:23.989Z,4.19
2019-01-02T01:22:53.128Z,4.15
2019-01-02T01:25:22.711Z,4.23
2019-01-02T01:27:51.883Z,4.28
2019-01-02T01:30:21.759Z,4.28
2019-01-02T01:32:51.316Z,4.32
2019-01-02T01:35:20.890Z,4.36
2019-01-02T01:37:55.642Z,4.41
2019-01-02T01:40:24.886Z,4.45
2019-01-02T01:42:54.052Z,4.50
2019-01-02T01:45:24.143Z,4.47
2019-01-02T01:47:53.370Z,4.59
2019-01-02T01:50:22.581Z,4.64
2019-01-02T01:52:52.443Z,4.71
2019-01-02T01:55:21.957Z,4.74
2019-01-02T01:57:51.533Z,4.86
2019-01-02T02:00:21.586Z,4.85
2019-01-02T02:02:50.893Z,4.93
2019-01-02T02:05:20.872Z,5.02
2019-01-02T02:07:50.085Z,5.05
2019-01-02T02:10:20.017Z,5.02
2019-01-02T02:12:49.490Z,5.08
2019-01-02T02:15:19.337Z,5.07
2019-01-02T02:17:48.892Z,5.13
2019-01-02T02:20:18.149Z,5.23
2019-01-02T02:22:47.956Z,5.20
2019-01-02T02:25:19.730Z,5.27
2019-01-02T02:27:48.874Z,5.39
2019-01-02T02:30:18.354Z,5.42
2019-01-02T02:32:49.374Z,5.43
2019-01-02T02:35:19.200Z,5.47
2019-01-02T02:37:48.670Z,5.53
2019-01-02T02:40:17.909Z,5.58
2019-01-02T02:42:47.112Z,5.51
2019-01-02T02:45:17.179Z,5.52
2019-01-02T02:47:47.457Z,5.59
2019-01-02T02:50:17.521Z,5.66
2019-01-02T02:52:47.331Z,5.61
2019-01-02T02:55:19.858Z,5.62
2019-01-02T02:57:49.646Z,5.67
2019-01-02T03:00:18.865Z,5.76
2019-01-02T03:02:48.375Z,5.75
2019-01-02T03:05:17.962Z,5.72
2019-01-02T03:07:47.776Z,5.74
2019-01-02T03:10:17.749Z,5.77
2019-01-02T03:12:47.272Z,5.80
2019-01-02T03:15:16.844Z,5.78
2019-01-02T03:17:46.025Z,5.73
2019-01-02T03:20:17.249Z,5.68
2019-01-02T03:22:46.791Z,5.55
2019-01-02T03:25:16.567Z,5.54
2019-01-02T03:27:46.209Z,5.54
2019-01-02T03:30:17.848Z,5.46
2019-01-02T03:32:47.401Z,5.37
2019-01-02T03:35:17.408Z,5.29
2019-01-02T03:37:47.016Z,5.34
2019-01-02T03:40:16.173Z,5.29
2019-01-02T03:42:45.373Z,5.29
2019-01-02T03:45:17.326Z,5.36
2019-01-02T03:47:46.827Z,5.37
2019-01-02T03:50:17.793Z,5.32
2019-01-02T03:52:47.614Z,5.21
2019-01-02T03:55:16.760Z,5.33
2019-01-02T03:57:46.330Z,5.26
2019-01-02T04:00:18.051Z,5.16
2019-01-02T04:02:47.194Z,5.09
2019-01-02T04:05:18.646Z,4.92
2019-01-02T04:07:51.419Z,5.04
2019-01-02T04:10:20.559Z,4.95
2019-01-02T04:12:49.987Z,4.99
2019-01-02T04:15:19.167Z,5.06
2019-01-02T04:17:48.374Z,5.03
2019-01-02T04:20:17.530Z,4.91
2019-01-02T04:22:46.679Z,4.92
2019-01-02T04:25:16.539Z,4.90
2019-01-02T04:27:46.438Z,4.90
2019-01-02T04:30:16.222Z,4.95
2019-01-02T04:32:45.390Z,4.98
2019-01-02T04:35:14.585Z,4.93
2019-01-02T04:37:44.437Z,4.91
2019-01-02T04:40:14.332Z,4.71
2019-01-02T04:42:43.521Z,4.62
2019-01-02T04:45:13.019Z,4.63
2019-01-02T04:47:42.533Z,4.57
2019-01-02T04:50:13.478Z,4.57
2019-01-02T04:52:43.041Z,4.49
2019-01-02T04:55:12.186Z,4.36
2019-01-02T04:57:41.373Z,4.31
2019-01-02T05:00:13.945Z,4.32
2019-01-02T05:02:43.513Z,4.33
2019-01-02T05:05:12.677Z,4.25
2019-01-02T05:07:41.831Z,4.22
2019-01-02T05:10:12.819Z,4.19
2019-01-02T05:12:42.751Z,4.13
2019-01-02T05:15:12.526Z,4.07
2019-01-02T05:17:42.052Z,3.95
2019-01-02T05:20:16.383Z,4.04
2019-01-02T05:22:45.557Z,3.89
2019-01-02T05:25:15.402Z,3.94
2019-01-02T05:27:44.974Z,3.90
2019-01-02T05:30:16.797Z,3.86
2019-01-02T05:32:46.392Z,3.88
2019-01-02T05:35:15.742Z,3.90
2019-01-02T05:37:45.016Z,3.80
2019-01-02T05:40:22.768Z,3.93
2019-01-02T05:42:51.941Z,4.17
2019-01-02T05:45:21.482Z,4.28
2019-01-02T05:47:51.008Z,4.36
2019-01-02T05:50:20.183Z,4.55
2019-01-02T05:52:49.827Z,4.61
2019-01-02T05:55:18.970Z,4.63
2019-01-02T05:57:48.734Z,4.67
2019-01-02T06:00:18.252Z,4.69
2019-01-02T06:02:47.815Z,4.66
2019-01-02T06:05:17.402Z,4.63
2019-01-02T06:07:46.533Z,4.55
2019-01-02T06:10:16.487Z,4.47
2019-01-02T06:12:45.673Z,4.55
2019-01-02T06:15:16.757Z,4.51
2019-01-02T06:17:46.021Z,4.58
2019-01-02T06:20:17.126Z,4.62
2019-01-02T06:22:46.326Z,4.70
2019-01-02T06:25:15.501Z,4.75
2019-01-02T06:27:45.059Z,4.82
2019-01-02T06:30:14.663Z,4.88
2019-01-02T06:32:44.751Z,4.93
2019-01-02T06:35:14.081Z,4.93
2019-01-02T06:37:43.244Z,4.92
2019-01-02T06:40:13.825Z,4.80
2019-01-02T06:42:43.643Z,4.71
2019-01-02T06:45:15.004Z,4.75
2019-01-02T06:47:44.201Z,4.76
2019-01-02T06:50:19.962Z,4.79
2019-01-02T06:52:49.690Z,4.77
2019-01-02T06:55:19.133Z,4.83
2019-01-02T06:57:48.273Z,4.89
2019-01-02T07:00:21.757Z,4.90
2019-01-02T07:02:51.280Z,4.91
2019-01-02T07:05:20.881Z,4.98
2019-01-02T07:07:50.442Z,4.96
2019-01-02T07:10:19.960Z,4.85
2019-01-02T07:12:49.129Z,4.81
2019-01-02T07:15:18.623Z,4.74
2019-01-02T07:17:48.086Z,4.84
2019-01-02T07:20:17.590Z,4.76
2019-01-02T07:22:47.261Z,4.69
2019-01-02T07:25:16.454Z,4.55
2019-01-02T07:27:45.632Z,4.47
2019-01-02T07:30:18.067Z,4.48
2019-01-02T07:32:47.259Z,4.38
2019-01-02T07:36:02.223Z,4.28
2019-01-02T07:39:20.924Z,4.32
2019-01-02T07:42:32.559Z,4.41
2019-01-02T07:45:45.906Z,4.39
2019-01-02T07:48:48.956Z,4.45
2019-01-02T07:51:40.642Z,4.47
2019-01-02T07:55:00.928Z,4.53
2019-01-02T07:58:10.626Z,4.54
2019-01-02T08:01:08.407Z,4.50
2019-01-02T08:04:06.845Z,4.45
2019-01-02T08:07:31.093Z,4.45
2019-01-02T08:11:02.821Z,4.37
2019-01-02T08:14:07.973Z,4.42
2019-01-02T08:17:07.361Z,4.62
2019-01-02T08:20:04.152Z,4.81
2019-01-02T08:23:04.883Z,4.90
2019-01-02T08:26:12.412Z,4.96
2019-01-02T08:29:16.646Z,4.98
2019-01-02T08:32:24.448Z,4.97
2019-01-02T08:35:13.186Z,4.92
2019-01-02T08:38:32.636Z,4.90
2019-01-02T08:41:58.418Z,4.98
2019-01-02T08:45:01.841Z,5.04
2019-01-02T08:48:18.157Z,5.14
2019-01-02T08:51:42.984Z,5.29
2019-01-02T08:55:20.846Z,5.38
2019-01-02T08:58:27.166Z,5.41
2019-01-02T09:01:21.810Z,5.43
2019-01-02T09:04:30.767Z,5.29
2019-01-02T09:07:43.444Z,5.26
2019-01-02T09:10:40.774Z,5.22
2019-01-02T09:14:06.240Z,5.26
2019-01-02T09:17:07.625Z,5.22
2019-01-02T09:20:24.321Z,5.21
2019-01-02T09:23:30.880Z,5.29
2019-01-02T09:26:57.141Z,5.31
2019-01-02T09:30:03.381Z,5.26
2019-01-02T09:32:58.704Z,5.36
2019-01-02T09:35:59.690Z,5.36
2019-01-02T09:39:25.340Z,5.32
2019-01-02T09:42:31.093Z,5.37
2019-01-02T09:45:29.964Z,5.46
2019-01-02T09:48:58.496Z,5.46
2019-01-02T09:52:07.932Z,5.52
2019-01-02T09:55:32.591Z,5.51
2019-01-02T09:58:58.736Z,5.52
2019-01-02T10:02:02.929Z,5.61
2019-01-02T10:05:04.954Z,5.62
2019-01-02T10:07:51.642Z,5.65
2019-01-02T10:10:58.931Z,5.66
2019-01-02T10:14:06.463Z,5.77
2019-01-02T10:17:26.049Z,5.79
2019-01-02T10:20:43.731Z,5.76
2019-01-02T10:23:33.323Z,5.85
2019-01-02T10:26:46.886Z,5.88
2019-01-02T10:29:56.608Z,5.94
2019-01-02T10:32:51.854Z,5.97
2019-01-02T10:36:16.023Z,6.03
2019-01-02T10:39:34.531Z,6.08
2019-01-02T10:42:41.786Z,6.17
2019-01-02T10:45:45.610Z,6.35
2019-01-02T10:49:06.647Z,6.63
2019-01-02T10:52:26.894Z,6.63
2019-01-02T10:55:46.506Z,6.69
2019-01-02T10:58:59.688Z,6.41
2019-01-02T11:01:43.940Z,6.35
2019-01-02T11:04:33.683Z,6.52
2019-01-02T11:07:25.996Z,6.61
2019-01-02T11:10:31.863Z,6.47
2019-01-02T11:13:11.087Z,6.42
2019-01-02T11:16:09.003Z,6.45
2019-01-02T11:19:34.467Z,6.35
2019-01-02T11:23:06.228Z,6.34
2019-01-02T11:26:06.552Z,6.22
2019-01-02T11:29:20.893Z,6.01
2019-01-02T11:32:33.053Z,5.98
2019-01-02T11:35:33.105Z,6.09
2019-01-02T11:38:31.435Z,6.29
2019-01-02T11:41:34.813Z,6.38
2019-01-02T11:44:43.906Z,6.50
2019-01-02T11:47:13.534Z,6.44
2019-01-02T11:49:43.013Z,6.35
2019-01-02T11:52:12.192Z,6.35
2019-01-02T11:54:41.446Z,6.33
2019-01-02T11:57:11.257Z,6.30
2019-01-02T11:59:40.653Z,6.35
2019-01-02T12:02:09.848Z,6.51
2019-01-02T12:04:38.993Z,6.76
2019-01-02T12:07:08.316Z,6.89
2019-01-02T12:09:37.454Z,6.94
2019-01-02T12:12:07.044Z,6.89
2019-01-02T12:14:36.204Z,6.85
2019-01-02T12:17:05.359Z,6.73
2019-01-02T12:19:34.520Z,6.67
2019-01-02T12:22:03.700Z,6.74
2019-01-02T12:24:33.068Z,6.58
2019-01-02T12:27:02.617Z,6.61
2019-01-02T12:29:31.836Z,6.65
2019-01-02T12:32:01.316Z,6.71
2019-01-02T12:34:30.439Z,6.84
2019-01-02T12:37:00.055Z,6.87
2019-01-02T12:39:29.533Z,6.70
2019-01-02T12:41:58.802Z,6.57
2019-01-02T12:44:27.956Z,6.45
2019-01-02T12:46:58.918Z,6.27
2019-01-02T12:49:28.505Z,6.14
2019-01-02T12:51:57.660Z,6.00
2019-01-02T12:54:26.781Z,5.95
2019-01-02T12:56:56.013Z,5.85
2019-01-02T12:59:28.161Z,5.92
2019-01-02T13:02:28.530Z,5.90
2019-01-02T13:05:26.511Z,5.81
2019-01-02T13:08:43.307Z,5.74
2019-01-02T13:11:18.393Z,5.68
2019-01-02T13:14:14.604Z,5.79
2019-01-02T13:17:22.025Z,5.85
2019-01-02T13:20:15.185Z,5.92
2019-01-02T13:23:37.555Z,5.92
2019-01-02T13:26:33.691Z,5.99
2019-01-02T13:29:31.196Z,6.12
2019-01-02T13:32:21.583Z,6.13
2019-01-02T13:35:31.718Z,6.22
2019-01-02T13:38:26.295Z,6.32
2019-01-02T13:42:00.985Z,6.38
2019-01-02T13:44:54.171Z,6.48
2019-01-02T13:48:03.789Z,6.42
2019-01-02T13:51:16.691Z,6.48
2019-01-02T13:53:45.845Z,6.56
2019-01-02T13:56:19.136Z,6.55
2019-01-02T13:58:48.676Z,6.53
2019-01-02T14:01:18.557Z,6.55
2019-01-02T14:03:51.233Z,6.49
2019-01-02T14:06:20.746Z,6.47
2019-01-02T14:08:49.994Z,6.39
2019-01-02T14:11:19.448Z,6.35
2019-01-02T14:13:48.982Z,6.08
2019-01-02T14:16:18.192Z,5.93
2019-01-02T14:18:47.683Z,5.78
2019-01-02T14:21:17.203Z,5.73
2019-01-02T14:23:46.390Z,5.71
2019-01-02T14:26:15.862Z,5.75
2019-01-02T14:28:45.431Z,5.75
2019-01-02T14:31:14.985Z,5.76
2019-01-02T14:33:44.193Z,5.77
2019-01-02T14:36:13.402Z,5.84
2019-01-02T14:38:42.536Z,6.01
2019-01-02T14:41:11.719Z,5.98
2019-01-02T14:43:41.167Z,6.02
2019-01-02T14:46:10.653Z,6.01
2019-01-02T14:48:39.967Z,6.02
2019-01-02T14:51:09.156Z,5.94
2019-01-02T14:53:38.972Z,5.89
2019-01-02T14:56:08.514Z,5.85
2019-01-02T14:58:38.468Z,5.88
2019-01-02T15:01:07.679Z,5.82
2019-01-02T15:03:37.351Z,5.80
2019-01-02T15:06:06.492Z,5.63
2019-01-02T15:08:35.728Z,5.53
2019-01-02T15:11:08.238Z,5.37
2019-01-02T15:13:35.824Z,5.24
2019-01-02T15:16:04.977Z,5.19
2019-01-02T15:18:34.688Z,5.06
2019-01-02T15:21:03.898Z,5.00
2019-01-02T15:23:33.390Z,4.95
2019-01-02T15:26:03.049Z,4.81
2019-01-02T15:28:32.213Z,4.64
2019-01-02T15:31:01.404Z,4.58
2019-01-02T15:33:30.635Z,4.48
2019-01-02T15:35:59.808Z,4.46
2019-01-02T15:38:29.666Z,4.41
2019-01-02T15:40:59.121Z,4.28
2019-01-02T15:43:28.330Z,4.09
2019-01-02T15:45:57.526Z,3.95
2019-01-02T15:48:26.716Z,3.96
2019-01-02T15:50:55.879Z,3.77
2019-01-02T15:53:25.088Z,3.69
2019-01-02T15:55:54.287Z,3.62
2019-01-02T15:58:23.432Z,3.55
2019-01-02T16:00:52.939Z,3.42
2019-01-02T16:03:22.105Z,3.28
2019-01-02T16:05:52.035Z,3.07
2019-01-02T16:08:22.840Z,3.17
2019-01-02T16:10:53.920Z,3.03
2019-01-02T16:13:23.495Z,2.77
2019-01-02T16:15:54.204Z,2.65
2019-01-02T16:18:25.592Z,2.56
2019-01-02T16:20:56.294Z,2.46
2019-01-02T16:23:28.254Z,2.33
2019-01-02T16:25:57.685Z,2.32
2019-01-02T16:28:29.643Z,2.18
2019-01-02T16:30:59.080Z,2.08
2019-01-02T16:33:28.902Z,2.03
2019-01-02T16:35:59.593Z,1.91
2019-01-02T16:38:29.229Z,1.74
2019-01-02T16:40:58.548Z,1.63
2019-01-02T16:43:29.348Z,1.55
2019-01-02T16:45:58.677Z,1.49
2019-01-02T16:48:28.344Z,1.54
2019-01-02T16:50:59.684Z,1.44
2019-01-02T16:53:30.060Z,1.50
2019-01-02T16:56:00.476Z,1.85
2019-01-02T16:58:30.559Z,2.11
2019-01-02T17:01:00.270Z,2.18
2019-01-02T17:03:31.774Z,2.21
2019-01-02T17:06:02.646Z,2.22
2019-01-02T17:08:33.416Z,2.22
2019-01-02T17:11:07.491Z,2.13
2019-01-02T17:13:38.004Z,2.11
2019-01-02T17:16:08.444Z,2.04
2019-01-02T17:18:39.414Z,1.99
2019-01-02T17:21:10.795Z,1.88
2019-01-02T17:23:40.435Z,1.83
2019-01-02T17:26:12.059Z,1.58
2019-01-02T17:28:43.761Z,1.39
2019-01-02T17:31:13.768Z,1.22
2019-01-02T17:33:43.889Z,1.34
2019-01-02T17:36:14.885Z,1.20
2019-01-02T17:38:44.303Z,1.28
2019-01-02T17:41:15.957Z,1.16
2019-01-02T17:43:47.982Z,1.15
2019-01-02T17:46:17.576Z,1.11
2019-01-02T17:48:48.356Z,1.05
2019-01-02T17:51:17.761Z,1.06
2019-01-02T17:53:48.772Z,1.05
2019-01-02T17:56:19.151Z,1.08
2019-01-02T17:58:48.814Z,1.05
2019-01-02T18:01:19.849Z,1.03
2019-01-02T18:03:50.878Z,1.02
2019-01-02T18:06:20.451Z,0.99
2019-01-02T18:08:50.034Z,0.94
2019-01-02T18:11:20.460Z,0.94
2019-01-02T18:13:49.896Z,0.89
2019-01-02T18:16:19.066Z,0.86
2019-01-02T18:18:49.013Z,0.81
2019-01-02T18:21:18.544Z,0.82
2019-01-02T18:23:47.684Z,0.83
2019-01-02T18:26:16.881Z,0.83
2019-01-02T18:28:47.831Z,0.90
2019-01-02T18:31:18.962Z,0.87
2019-01-02T18:33:48.572Z,0.82
2019-01-02T18:36:17.952Z,0.77
2019-01-02T18:38:48.430Z,0.79
2019-01-02T18:41:19.868Z,0.84
2019-01-02T18:43:49.668Z,0.86
2019-01-02T18:46:21.334Z,0.93
2019-01-02T18:48:51.215Z,1.04
2019-01-02T18:51:22.091Z,1.15
2019-01-02T18:53:51.347Z,1.10
2019-01-02T18:56:20.722Z,1.13
2019-01-02T18:58:49.945Z,1.25
2019-01-02T19:01:19.544Z,1.38
2019-01-02T19:03:48.908Z,1.47
2019-01-02T19:06:18.680Z,1.52
2019-01-02T19:08:48.473Z,1.54
2019-01-02T19:11:18.164Z,1.57
2019-01-02T19:13:47.802Z,1.64
2019-01-02T19:16:21.667Z,1.84
2019-01-02T19:18:50.464Z,1.90
2019-01-02T19:21:19.875Z,1.99
2019-01-02T19:23:49.530Z,2.08
2019-01-02T19:26:18.949Z,2.03
2019-01-02T19:28:48.481Z,1.81
2019-01-02T19:31:17.943Z,1.60
2019-01-02T19:33:47.483Z,1.68
2019-01-02T19:36:16.792Z,1.84
2019-01-02T19:38:46.023Z,1.93
2019-01-02T19:41:15.621Z,2.01
2019-01-02T19:43:44.775Z,2.15
2019-01-02T19:46:14.290Z,2.01
2019-01-02T19:48:43.612Z,2.02
2019-01-02T19:51:13.183Z,2.03
2019-01-02T19:53:42.842Z,2.11
2019-01-02T19:56:12.893Z,2.14
2019-01-02T19:58:42.666Z,2.24
2019-01-02T20:01:12.471Z,2.12
2019-01-02T20:03:42.389Z,1.97
2019-01-02T20:06:13.385Z,1.89
2019-01-02T20:08:43.511Z,1.77
2019-01-02T20:11:13.706Z,1.74
2019-01-02T20:13:43.780Z,1.76
2019-01-02T20:16:13.560Z,1.80
2019-01-02T20:18:43.113Z,1.83
2019-01-02T20:21:13.220Z,1.84
2019-01-02T20:23:43.832Z,1.90
2019-01-02T20:26:14.275Z,1.94
2019-01-02T20:28:44.217Z,1.96
2019-01-02T20:31:14.356Z,1.99
2019-01-02T20:33:44.670Z,2.07
2019-01-02T20:36:15.888Z,2.13
2019-01-02T20:38:46.621Z,2.15
2019-01-02T20:41:16.708Z,2.16
2019-01-02T20:43:47.105Z,2.17
2019-01-02T20:46:17.709Z,2.17
2019-01-02T20:48:48.429Z,2.14
2019-01-02T20:51:18.499Z,2.21
2019-01-02T20:53:48.276Z,2.17
2019-01-02T20:56:18.290Z,2.08
2019-01-02T20:58:47.999Z,2.02
2019-01-02T21:01:18.837Z,2.08
2019-01-02T21:03:48.378Z,2.14
2019-01-02T21:06:18.361Z,2.15
2019-01-02T21:08:48.073Z,2.11
2019-01-02T21:11:17.418Z,2.12
2019-01-02T21:13:46.636Z,2.12
2019-01-02T21:16:16.185Z,2.18
2019-01-02T21:18:45.621Z,2.22
2019-01-02T21:21:15.132Z,2.36
2019-01-02T21:23:44.633Z,2.38
2019-01-02T21:26:13.836Z,2.57
2019-01-02T21:28:43.060Z,2.74
2019-01-02T21:31:12.919Z,2.83
2019-01-02T21:33:42.750Z,2.91
2019-01-02T21:36:12.026Z,3.02
2019-01-02T21:38:41.561Z,3.06
2019-01-02T21:41:11.307Z,3.10
2019-01-02T21:43:41.677Z,3.11
2019-01-02T21:46:10.859Z,3.11
2019-01-02T21:48:41.817Z,3.10
2019-01-02T21:51:11.134Z,3.10
2019-01-02T21:53:40.700Z,3.14
2019-01-02T21:56:10.186Z,3.19
2019-01-02T21:58:39.823Z,3.18
2019-01-02T22:01:08.997Z,3.07
2019-01-02T22:03:38.165Z,3.14
2019-01-02T22:06:07.540Z,3.14
2019-01-02T22:08:36.699Z,3.11
2019-01-02T22:11:05.862Z,3.10
2019-01-02T22:13:35.890Z,3.09
2019-01-02T22:16:05.129Z,3.19
2019-01-02T22:18:34.359Z,3.12
2019-01-02T22:21:04.221Z,3.10
2019-01-02T22:23:33.414Z,2.99
2019-01-02T22:26:03.281Z,3.09
2019-01-02T22:28:32.500Z,3.19
2019-01-02T22:31:01.714Z,3.12
2019-01-02T22:33:30.925Z,3.21
2019-01-02T22:36:00.396Z,3.25
2019-01-02T22:38:30.140Z,3.16
2019-01-02T22:40:59.310Z,3.23
2019-01-02T22:43:28.872Z,3.35
2019-01-02T22:45:58.376Z,3.42
2019-01-02T22:48:28.159Z,3.36
2019-01-02T22:50:59.054Z,3.45
2019-01-02T22:53:28.173Z,3.48
2019-01-02T22:55:57.315Z,3.29
2019-01-02T22:58:26.859Z,3.29
2019-01-02T23:01:13.598Z,3.29
2019-01-02T23:04:00.680Z,3.33
2019-01-02T23:06:48.153Z,3.46
2019-01-02T23:09:35.211Z,3.33
2019-01-02T23:12:41.773Z,3.36
2019-01-02T23:15:28.511Z,3.37
2019-01-02T23:18:15.461Z,3.47
2019-01-02T23:21:21.743Z,3.35
2019-01-02T23:24:25.664Z,3.23
2019-01-02T23:27:29.784Z,3.26
2019-01-02T23:30:21.593Z,3.28
2019-01-02T23:33:08.717Z,3.28
2019-01-02T23:35:47.815Z,3.25
2019-01-02T23:38:35.038Z,3.27
2019-01-02T23:41:23.529Z,3.34
2019-01-02T23:44:11.626Z,3.28
2019-01-02T23:47:05.678Z,3.20
2019-01-02T23:50:12.420Z,3.24
2019-01-02T23:53:09.695Z,3.17
2019-01-02T23:56:00.927Z,3.18
2019-01-02T23:58:47.888Z,3.15
